Time;durP1;ratioP1;P1;durP2;ratioP2;P2;SDS_P1;SDS_P2;PMS_P1;PMS_P2;Temp;Humidity;BMP_temperature;BMP_pressure;BME280_temperature;BME280_humidity;BME280_pressure;Samples;Min_cycle;Max_cycle;Signal;HPM_P1;HPM_P2
2022/06/16 00:01:18;;;;;;;;;;;;;;;20.40;63.66;101311.03;7404195;19;1854;-60
2022/06/16 00:03:46;;;;;;;;;;;;;;;20.39;63.51;101293.19;7405193;19;1307;-61
2022/06/16 00:06:17;;;;;;;;;;;;;;;20.42;63.47;101301.84;7405464;19;1464;-61
2022/06/16 00:08:45;;;;;;;;;;;;;;;20.37;63.48;101297.84;7404505;19;1267;-61
2022/06/16 00:11:20;;;;;;;;;;;;;;;20.42;63.65;101299.16;7406147;19;1492;-61
2022/06/16 00:13:49;;;;;;;;;;;;;;;20.39;63.44;101287.81;7405130;19;1654;-62
2022/06/16 00:16:18;;;;;;;;;;;;;;;20.46;63.27;101305.13;7405009;19;1319;-62
2022/06/16 00:18:47;;;;;;;;;;;;;;;20.43;63.26;101300.88;7404990;19;1304;-62
2022/06/16 00:21:18;;;;;;;;;;;;;;;20.39;63.15;101293.19;7405530;19;1829;-60
2022/06/16 00:23:47;;;;;;;;;;;;;;;20.33;62.99;101293.72;7404958;19;1778;-61
2022/06/16 00:26:16;;;;;;;;;;;;;;;20.26;63.33;101299.63;7404592;19;1457;-60
2022/06/16 00:28:45;;;;;;;;;;;;;;;20.34;62.90;101292.75;7404087;19;1689;-61
2022/06/16 00:31:15;;;;;;;;;;;;;;;20.36;62.77;101301.53;7402282;19;1309;-62
2022/06/16 00:33:43;;;;;;;;;;;;;;;20.41;62.26;101301.97;7403529;19;1218;-60
2022/06/16 00:36:12;;;;;;;;;;;;;;;20.49;61.87;101288.72;7403087;19;1667;-62
2022/06/16 00:38:43;;;;;;;;;;;;;;;20.44;62.58;101296.34;7403674;19;1328;-61
2022/06/16 00:41:12;;;;;;;;;;;;;;;20.32;62.81;101278.59;7400131;19;1889;-61
2022/06/16 00:43:41;;;;;;;;;;;;;;;20.29;62.56;101286.91;7402752;19;1338;-61
2022/06/16 00:46:12;;;;;;;;;;;;;;;20.25;62.97;101292.56;7402690;19;1337;-61
2022/06/16 00:48:42;;;;;;;;;;;;;;;20.30;62.40;101283.25;7404161;19;1302;-60
2022/06/16 00:51:12;;;;;;;;;;;;;;;20.31;62.67;101284.94;7403734;19;1587;-62
2022/06/16 00:53:44;;;;;;;;;;;;;;;20.32;62.52;101284.81;7402804;19;1666;-61
2022/06/16 00:56:14;;;;;;;;;;;;;;;20.45;62.07;101298.03;7404591;19;1367;-62
2022/06/16 00:58:45;;;;;;;;;;;;;;;20.44;61.62;101286.44;7403456;19;1508;-62
2022/06/16 01:01:13;;;;;;;;;;;;;;;20.42;61.94;101277.66;7402237;19;1854;-62
2022/06/16 01:06:24;;;;;;;;;;;;;;;20.43;61.97;101278.50;7403087;19;1286;-60
2022/06/16 01:08:58;;;;;;;;;;;;;;;20.45;61.92;101273.84;7402733;19;1279;-61
2022/06/16 01:14:16;;;;;;;;;;;;;;;20.41;61.97;101264.34;7403266;19;1294;-60
2022/06/16 01:16:47;;;;;;;;;;;;;;;20.46;61.74;101272.88;7402304;19;1537;-61
2022/06/16 01:19:21;;;;;;;;;;;;;;;20.40;62.22;101279.63;7401612;19;1615;-61
2022/06/16 01:21:55;;;;;;;;;;;;;;;20.44;62.08;101285.59;7402246;19;1850;-61
2022/06/16 01:24:41;;;;;;;;;;;;;;;20.33;62.33;101273.06;7402757;19;1350;-62
2022/06/16 01:27:30;;;;;;;;;;;;;;;20.35;61.78;101275.63;7400708;19;1580;-61
2022/06/16 01:30:04;;;;;;;;;;;;;;;20.35;62.42;101281.88;7400005;19;1378;-61
2022/06/16 01:32:40;;;;;;;;;;;;;;;20.33;62.11;101286.50;7402396;19;1254;-60
2022/06/16 01:35:13;;;;;;;;;;;;;;;20.35;62.19;101271.13;7401876;19;1303;-61
2022/06/16 01:37:45;;;;;;;;;;;;;;;20.22;62.16;101279.38;7399521;19;1342;-62
2022/06/16 01:40:20;;;;;;;;;;;;;;;20.36;61.40;101263.91;7402577;19;1441;-61
2022/06/16 01:42:52;;;;;;;;;;;;;;;20.41;61.48;101285.84;7399349;19;1861;-60
2022/06/16 01:45:24;;;;;;;;;;;;;;;20.40;61.40;101268.88;7402569;19;1370;-60
2022/06/16 01:47:53;;;;;;;;;;;;;;;20.36;61.58;101274.66;7402280;19;1764;-62
2022/06/16 01:50:24;;;;;;;;;;;;;;;20.36;61.64;101272.81;7400700;19;1618;-61
2022/06/16 01:52:54;;;;;;;;;;;;;;;20.31;61.90;101275.03;7405483;19;1339;-61
2022/06/16 01:55:26;;;;;;;;;;;;;;;20.35;61.21;101264.88;7410163;19;1453;-61
2022/06/16 01:57:59;;;;;;;;;;;;;;;20.35;61.15;101268.44;7409214;19;1370;-61
2022/06/16 02:00:31;;;;;;;;;;;;;;;20.13;61.61;101249.78;7402369;19;1390;-62
2022/06/16 02:03:03;;;;;;;;;;;;;;;20.00;61.95;101266.09;7403322;19;1854;-60
2022/06/16 02:05:33;;;;;;;;;;;;;;;20.01;62.15;101267.78;7407565;19;1501;-62
2022/06/16 02:08:04;;;;;;;;;;;;;;;20.10;61.69;101263.47;7406428;19;1303;-60
2022/06/16 02:10:35;;;;;;;;;;;;;;;20.14;61.41;101260.38;7407317;19;1289;-61
2022/06/16 02:13:05;;;;;;;;;;;;;;;20.13;61.61;101252.44;7402512;19;1306;-60
2022/06/16 02:15:42;;;;;;;;;;;;;;;20.22;61.38;101276.69;7404715;19;1362;-62
2022/06/16 02:18:12;;;;;;;;;;;;;;;20.18;61.54;101269.88;7405721;19;1393;-62
2022/06/16 02:20:46;;;;;;;;;;;;;;;20.09;61.57;101249.19;7407253;19;1313;-60
2022/06/16 02:23:15;;;;;;;;;;;;;;;20.15;61.57;101259.38;7404713;19;1852;-61
2022/06/16 02:25:44;;;;;;;;;;;;;;;20.22;61.28;101271.31;7408645;19;1217;-61
2022/06/16 02:28:13;;;;;;;;;;;;;;;20.22;61.18;101276.69;7407714;19;1493;-60
2022/06/16 02:30:47;;;;;;;;;;;;;;;20.14;61.33;101278.34;7408364;19;1385;-61
2022/06/16 02:33:19;;;;;;;;;;;;;;;20.12;61.29;101269.56;7407620;19;1485;-62
2022/06/16 02:35:52;;;;;;;;;;;;;;;20.13;61.42;101274.78;7407454;19;1771;-60
2022/06/16 02:38:27;;;;;;;;;;;;;;;20.25;61.33;101292.56;7405834;19;1338;-59
2022/06/16 02:41:04;;;;;;;;;;;;;;;20.33;61.28;101285.66;7403970;19;1521;-62
2022/06/16 02:43:42;;;;;;;;;;;;;;;20.23;61.20;101261.41;7402504;19;1849;-60
2022/06/16 02:46:17;;;;;;;;;;;;;;;20.32;60.95;101279.44;7406900;19;1325;-60
2022/06/16 02:48:51;;;;;;;;;;;;;;;20.29;61.25;101276.16;7407412;19;1386;-60
2022/06/16 02:51:23;;;;;;;;;;;;;;;20.26;61.51;101274.59;7407135;19;1418;-60
2022/06/16 02:53:56;;;;;;;;;;;;;;;20.34;61.56;101273.94;7406507;19;1322;-59
2022/06/16 02:56:27;;;;;;;;;;;;;;;20.39;61.39;101269.88;7408838;19;1773;-62
2022/06/16 02:58:58;;;;;;;;;;;;;;;20.17;61.71;101278.91;7407940;19;1338;-63
2022/06/16 03:01:29;;;;;;;;;;;;;;;20.08;61.48;101279.69;7403991;19;1342;-62
2022/06/16 03:04:03;;;;;;;;;;;;;;;20.00;61.75;101282.19;7401204;19;1886;-63
2022/06/16 03:06:32;;;;;;;;;;;;;;;19.97;61.88;101282.44;7405996;19;1881;-60
2022/06/16 03:09:01;;;;;;;;;;;;;;;19.99;61.95;101285.84;7406184;19;1333;-63
2022/06/16 03:11:30;;;;;;;;;;;;;;;19.99;61.72;101280.47;7406219;19;1532;-63
2022/06/16 03:13:58;;;;;;;;;;;;;;;19.91;61.66;101269.53;7406337;19;1373;-60
2022/06/16 03:16:29;;;;;;;;;;;;;;;19.96;61.79;101280.75;7403765;19;1362;-61
2022/06/16 03:18:58;;;;;;;;;;;;;;;20.02;62.00;101290.97;7405588;19;1348;-61
2022/06/16 03:21:26;;;;;;;;;;;;;;;20.03;62.06;101271.19;7405048;19;1424;-62
2022/06/16 03:23:55;;;;;;;;;;;;;;;20.13;61.85;101287.34;7404212;19;1861;-63
2022/06/16 03:26:23;;;;;;;;;;;;;;;20.19;61.83;101287.72;7407290;19;1447;-61
2022/06/16 03:28:52;;;;;;;;;;;;;;;20.18;62.16;101280.63;7406440;19;1748;-60
2022/06/16 03:31:21;;;;;;;;;;;;;;;20.24;62.10;101285.47;7406261;19;1334;-63
2022/06/16 03:33:52;;;;;;;;;;;;;;;20.21;62.53;101280.38;7407392;19;1367;-62
2022/06/16 03:36:20;;;;;;;;;;;;;;;20.31;62.18;101284.94;7406591;19;1786;-63
2022/06/16 03:38:49;;;;;;;;;;;;;;;20.35;62.49;101291.75;7405551;19;1274;-63
2022/06/16 03:41:17;;;;;;;;;;;;;;;20.32;62.42;101289.34;7405060;19;1555;-60
2022/06/16 03:43:45;;;;;;;;;;;;;;;20.27;62.58;101293.28;7400728;19;1857;-63
2022/06/16 03:46:14;;;;;;;;;;;;;;;20.25;62.63;101287.19;7402264;19;1395;-61
2022/06/16 03:48:43;;;;;;;;;;;;;;;20.27;62.77;101284.34;7406067;19;1346;-63
2022/06/16 03:51:14;;;;;;;;;;;;;;;20.31;62.85;101280.41;7403544;19;1346;-63
2022/06/16 03:53:43;;;;;;;;;;;;;;;20.03;62.84;101215.66;7403618;19;1319;-63
2022/06/16 03:56:12;;;;;;;;;;;;;;;20.47;62.33;101296.06;7407074;19;1268;-60
2022/06/16 03:58:41;;;;;;;;;;;;;;;20.45;62.76;101298.03;7404824;19;1478;-61
2022/06/16 04:01:09;;;;;;;;;;;;;;;20.43;62.93;101290.13;7403353;19;1513;-63
2022/06/16 04:06:21;;;;;;;;;;;;;;;20.40;62.87;101289.53;7402312;19;1343;-63
2022/06/16 04:08:50;;;;;;;;;;;;;;;20.43;63.01;101289.25;7405067;19;1330;-61
2022/06/16 04:40:04;;;;;;;;;;;;;;;20.77;63.28;101280.97;2468701;19;2990026;-45
2022/06/16 04:42:32;;;;;;;;;;;;;;;20.94;62.60;101293.78;7429729;19;1612;-48
2022/06/16 04:45:00;;;;;;;;;;;;;;;20.90;62.58;101311.19;7435487;19;1656;-47
2022/06/16 04:47:28;;;;;;;;;;;;;;;20.97;62.48;101298.91;7437396;19;1015;-48
2022/06/16 04:49:57;;;;;;;;;;;;;;;20.97;62.71;101293.53;7436363;19;1441;-48
2022/06/16 04:52:25;;;;;;;;;;;;;;;20.98;62.86;101295.22;7433509;19;1811;-48
2022/06/16 04:54:53;;;;;;;;;;;;;;;20.93;63.07;101286.72;7435869;19;1464;-49
2022/06/16 04:57:24;;;;;;;;;;;;;;;20.98;62.85;101287.16;7435897;19;1846;-48
2022/06/16 04:59:52;;;;;;;;;;;;;;;21.11;62.54;101299.50;7435882;19;1451;-48
2022/06/16 05:02:21;;;;;;;;;;;;;;;21.13;62.46;101298.41;7437283;19;1729;-48
2022/06/16 05:04:49;;;;;;;;;;;;;;;21.24;62.84;101294.75;7435519;19;1936;-47
2022/06/16 05:07:17;;;;;;;;;;;;;;;21.25;62.73;101280.31;7434256;19;1701;-48
2022/06/16 05:09:45;;;;;;;;;;;;;;;21.00;63.60;101304.00;7435499;19;2019;-48
2022/06/16 05:12:14;;;;;;;;;;;;;;;21.02;63.44;101291.25;7434613;19;1795;-48
2022/06/16 05:14:45;;;;;;;;;;;;;;;21.05;63.58;101292.84;7431856;19;1582;-48
2022/06/16 05:17:13;;;;;;;;;;;;;;;21.16;63.34;101294.56;7434797;19;1853;-48
2022/06/16 05:19:41;;;;;;;;;;;;;;;21.32;63.24;101269.84;7433030;19;1634;-48
2022/06/16 05:22:10;;;;;;;;;;;;;;;21.34;63.28;101287.53;7434078;19;1702;-48
2022/06/16 05:24:38;;;;;;;;;;;;;;;21.44;62.78;101291.13;7434843;19;1604;-48
2022/06/16 05:27:07;;;;;;;;;;;;;;;21.54;62.77;101280.38;7433013;19;1466;-48
2022/06/16 05:29:35;;;;;;;;;;;;;;;21.61;62.76;101276.16;7417426;19;1653;-47
2022/06/16 05:32:06;;;;;;;;;;;;;;;21.72;62.64;101269.75;7406618;19;1647;-47
2022/06/16 05:34:35;;;;;;;;;;;;;;;21.68;63.50;101284.50;7405318;19;1892;-48
2022/06/16 05:37:03;;;;;;;;;;;;;;;21.71;63.66;101273.47;7404523;19;1696;-48
2022/06/16 05:39:31;;;;;;;;;;;;;;;21.44;64.13;101280.38;7405173;19;1805;-47
2022/06/16 05:41:59;;;;;;;;;;;;;;;21.61;64.14;101278.00;7404880;19;1800;-48
2022/06/16 05:44:28;;;;;;;;;;;;;;;21.74;64.05;101265.09;7404667;19;1789;-47
2022/06/16 05:46:56;;;;;;;;;;;;;;;21.87;63.31;101280.97;7405177;19;1395;-48
2022/06/16 05:49:27;;;;;;;;;;;;;;;21.96;63.93;101279.25;7404545;19;1810;-47
2022/06/16 05:51:55;;;;;;;;;;;;;;;22.00;63.54;101272.59;7403661;19;1850;-48
2022/06/16 05:54:23;;;;;;;;;;;;;;;22.15;63.50;101284.63;7402632;19;1663;-47
2022/06/16 05:56:57;;;;;;;;;;;;;;;22.16;63.56;101280.97;7404866;19;1553;-48
2022/06/16 05:59:30;;;;;;;;;;;;;;;22.13;63.52;101275.84;7400460;19;1856;-48
2022/06/16 06:02:13;;;;;;;;;;;;;;;22.08;63.91;101282.66;7402560;19;1677;-47
2022/06/16 06:04:48;;;;;;;;;;;;;;;22.05;63.97;101273.03;7402978;19;1728;-47
2022/06/16 06:07:24;;;;;;;;;;;;;;;22.08;63.97;101288.88;7403800;19;1844;-48
2022/06/16 06:18:20;;;;;;;;;;;;;;;21.97;64.29;101283.66;7403932;19;1858;-48
2022/06/16 06:20:55;;;;;;;;;;;;;;;21.97;64.04;101283.66;7405292;19;1917;-48
2022/06/16 06:23:27;;;;;;;;;;;;;;;21.97;64.56;101275.59;7405159;19;2027;-48
2022/06/16 06:25:59;;;;;;;;;;;;;;;21.96;64.28;101284.66;7402720;19;1920;-48
2022/06/16 06:28:30;;;;;;;;;;;;;;;21.97;63.99;101281.81;7403529;19;1670;-48
2022/06/16 06:31:04;;;;;;;;;;;;;;;21.97;64.11;101276.44;7404363;19;1854;-48
2022/06/16 06:33:47;;;;;;;;;;;;;;;;;;;;;
2022/06/16 06:36:22;;;;;;;;;;;;;;;21.97;64.81;101279.13;7403712;19;1620;-48
2022/06/16 06:38:57;;;;;;;;;;;;;;;22.00;64.51;101286.94;7406523;19;1891;-47
2022/06/16 06:41:25;;;;;;;;;;;;;;;22.07;64.53;101281.81;7395779;19;1889;-48
2022/06/16 06:43:53;;;;;;;;;;;;;;;22.02;64.20;101274.19;7403600;19;1912;-49
2022/06/16 06:46:22;;;;;;;;;;;;;;;22.02;64.42;101289.47;7404376;19;1487;-47
2022/06/16 06:48:50;;;;;;;;;;;;;;;22.07;64.83;101280.97;7401708;19;1735;-48
2022/06/16 06:51:21;;;;;;;;;;;;;;;22.11;64.23;101282.38;7401797;19;1600;-47
2022/06/16 06:53:49;;;;;;;;;;;;;;;22.07;64.39;101271.03;7400922;19;1667;-48
2022/06/16 06:56:19;;;;;;;;;;;;;;;22.04;65.34;101284.78;7402608;19;1639;-47
2022/06/16 06:58:47;;;;;;;;;;;;;;;22.08;64.65;101286.19;7400612;19;1851;-47
2022/06/16 07:01:15;;;;;;;;;;;;;;;22.11;64.31;101287.78;7403672;19;1449;-47
2022/06/16 07:03:44;;;;;;;;;;;;;;;22.10;64.50;101284.22;7398711;19;1742;-47
2022/06/16 07:06:12;;;;;;;;;;;;;;;22.11;64.25;101294.00;7398222;19;1886;-48
2022/06/16 07:08:43;;;;;;;;;;;;;;;22.09;64.49;101277.13;7400820;19;1572;-47
2022/06/16 07:11:11;;;;;;;;;;;;;;;22.11;64.63;101285.91;7402851;19;1592;-47
2022/06/16 07:13:40;;;;;;;;;;;;;;;22.15;64.55;101273.88;7402457;19;1900;-47
2022/06/16 07:16:09;;;;;;;;;;;;;;;22.10;64.43;101292.28;7401513;19;1886;-47
2022/06/16 07:18:37;;;;;;;;;;;;;;;22.06;64.74;101288.19;7398930;19;1852;-47
2022/06/16 07:21:05;;;;;;;;;;;;;;;22.03;64.93;101293.88;7402268;19;1832;-47
2022/06/16 07:23:34;;;;;;;;;;;;;;;22.02;64.67;101289.47;7403032;19;1905;-47
2022/06/16 07:26:05;;;;;;;;;;;;;;;22.00;64.58;101280.69;7402497;19;1834;-47
2022/06/16 07:28:33;;;;;;;;;;;;;;;22.04;64.71;101292.84;7401668;19;1671;-47
2022/06/16 07:31:02;;;;;;;;;;;;;;;22.02;65.12;101289.47;7401696;19;1806;-48
2022/06/16 07:33:30;;;;;;;;;;;;;;;22.06;65.02;101288.19;7400009;19;1646;-47
2022/06/16 07:35:59;;;;;;;;;;;;;;;22.04;64.70;101276.69;7402858;19;1778;-47
2022/06/16 07:38:28;;;;;;;;;;;;;;;22.05;64.67;101286.50;7401281;19;1854;-47
2022/06/16 07:41:31;;;;;;;;;;;;;;;22.06;64.80;101285.47;7400279;19;1592;-47
2022/06/16 07:43:53;;;;;;;;;;;;;;;22.09;64.41;101279.81;7400457;19;1960;-47
2022/06/16 07:46:23;;;;;;;;;;;;;;;21.26;65.39;101288.22;7401231;19;1793;-47
2022/06/16 07:48:54;;;;;;;;;;;;;;;20.33;66.06;101282.97;7399078;19;1861;-46
2022/06/16 07:51:24;;;;;;;;;;;;;;;19.73;65.64;101280.81;7399299;19;1714;-46
2022/06/16 07:53:52;;;;;;;;;;;;;;;19.45;65.37;101307.22;7400295;19;1519;-47
2022/06/16 07:56:24;;;;;;;;;;;;;;;19.63;65.98;101301.31;7399427;19;1651;-46
2022/06/16 07:59:02;;;;;;;;;;;;;;;20.21;67.36;101280.38;7399095;19;1866;-46
2022/06/16 08:01:33;;;;;;;;;;;;;;;20.55;68.07;101295.41;7401510;19;1481;-46
2022/06/16 08:04:24;;;;;;;;;;;;;;;20.65;68.95;101277.53;7400977;19;1756;-46
2022/06/16 08:07:00;;;;;;;;;;;;;;;20.75;69.65;101277.56;7401083;19;1539;-47
2022/06/16 08:09:40;;;;;;;;;;;;;;;20.77;70.49;101275.59;7401229;19;1392;-48
2022/06/16 08:12:10;;;;;;;;;;;;;;;20.85;71.12;101283.88;7401131;19;1584;-47
2022/06/16 08:14:46;;;;;;;;;;;;;;;20.91;71.57;101283.31;7400856;19;1773;-47
2022/06/16 08:17:38;;;;;;;;;;;;;;;21.01;71.43;101305.72;7400947;19;1727;-48
2022/06/16 08:20:07;;;;;;;;;;;;;;;21.05;71.52;101295.53;7398190;19;1845;-47
2022/06/16 08:22:42;;;;;;;;;;;;;;;21.12;71.80;101290.47;7399713;19;1685;-49
2022/06/16 08:25:20;;;;;;;;;;;;;;;20.94;69.96;101282.19;7399649;19;1820;-47
2022/06/16 08:27:54;;;;;;;;;;;;;;;20.48;69.52;101260.16;7400160;19;1742;-46
2022/06/16 08:30:30;;;;;;;;;;;;;;;20.37;69.06;101289.78;7399192;19;1699;-47
2022/06/16 08:32:58;;;;;;;;;;;;;;;20.36;69.77;101293.47;7400099;19;1645;-46
2022/06/16 08:35:29;;;;;;;;;;;;;;;20.44;69.93;101285.59;7400333;19;1787;-48
2022/06/16 08:37:59;;;;;;;;;;;;;;;20.44;70.08;101286.44;7400511;19;1286;-49
2022/06/16 08:40:30;;;;;;;;;;;;;;;20.43;70.24;101294.63;7398988;19;1567;-47
2022/06/16 08:43:10;;;;;;;;;;;;;;;20.45;70.34;101282.78;7400574;19;1588;-47
2022/06/16 08:45:48;;;;;;;;;;;;;;;20.62;69.94;101289.41;7400235;19;1422;-47
2022/06/16 08:48:25;;;;;;;;;;;;;;;20.57;70.08;101280.00;7399960;19;1784;-47
2022/06/16 08:50:59;;;;;;;;;;;;;;;20.62;70.33;101285.88;7399521;19;1577;-47
2022/06/16 08:53:39;;;;;;;;;;;;;;;20.68;70.65;101292.56;7400051;19;1589;-46
2022/06/16 08:56:10;;;;;;;;;;;;;;;20.69;71.33;101256.59;7398087;19;1659;-47
2022/06/16 08:58:43;;;;;;;;;;;;;;;20.77;71.11;101289.91;7397661;19;1860;-47
2022/06/16 09:01:15;;;;;;;;;;;;;;;20.83;71.25;101280.44;7400177;19;1723;-48
2022/06/16 09:03:48;;;;;;;;;;;;;;;20.81;69.74;101277.03;7399668;19;1490;-47
2022/06/16 09:06:24;;;;;;;;;;;;;;;21.15;69.07;101263.28;7406005;19;1776;-48
2022/06/16 09:08:56;;;;;;;;;;;;;;;21.67;67.53;101268.50;7406708;19;1571;-49
2022/06/16 09:11:29;;;;;;;;;;;;;;;21.96;66.73;101273.88;7407062;19;1849;-50
2022/06/16 09:14:15;;;;;;;;;;;;;;;22.18;66.70;101267.31;7405992;19;1522;-50
2022/06/16 09:16:51;;;;;;;;;;;;;;;22.31;66.25;101267.06;7406261;19;1447;-47
2022/06/16 09:19:30;;;;;;;;;;;;;;;22.33;67.01;101275.84;7403692;19;1858;-47
2022/06/16 09:22:17;;;;;;;;;;;;;;;22.37;67.29;101269.19;7405097;19;1460;-48
2022/06/16 09:25:09;;;;;;;;;;;;;;;22.31;66.45;101259.81;7406109;19;1698;-49
2022/06/16 09:27:52;;;;;;;;;;;;;;;22.34;67.75;101272.16;7405929;19;2082;-50
2022/06/16 09:30:41;;;;;;;;;;;;;;;22.21;67.15;101257.13;7405388;19;1759;-49
2022/06/16 09:33:29;;;;;;;;;;;;;;;22.13;67.36;101269.63;7403963;19;1759;-49
2022/06/16 09:36:01;;;;;;;;;;;;;;;22.10;67.70;101275.28;7406499;19;1436;-50
2022/06/16 09:38:36;;;;;;;;;;;;;;;22.10;67.57;101264.50;7406484;19;1853;-48
2022/06/16 09:42:32;;;;;;;;;;;;;;;22.09;67.56;101274.44;7403756;19;1338;-49
2022/06/16 09:44:00;;;;;;;;;;;;;;;22.14;69.08;101265.91;7405733;19;1666;-48
2022/06/16 09:46:32;;;;;;;;;;;;;;;22.27;69.16;101262.97;7406257;19;1491;-48
2022/06/16 09:49:06;;;;;;;;;;;;;;;22.22;68.63;101244.50;7404274;19;1679;-48
2022/06/16 09:51:37;;;;;;;;;;;;;;;22.15;68.88;101251.47;7405511;19;1906;-49
2022/06/16 09:54:08;;;;;;;;;;;;;;;22.12;68.37;101251.75;7405918;19;1583;-49
2022/06/16 09:56:41;;;;;;;;;;;;;;;22.09;68.69;101241.28;7405819;19;1789;-50
2022/06/16 09:59:11;;;;;;;;;;;;;;;22.09;68.14;101247.50;7404938;19;1861;-50
2022/06/16 10:01:43;;;;;;;;;;;;;;;22.06;68.22;101247.78;7406118;19;1763;-49
2022/06/16 10:04:15;;;;;;;;;;;;;;;22.08;68.34;101243.09;7405156;19;1811;-48
2022/06/16 10:06:51;;;;;;;;;;;;;;;22.05;68.22;101252.31;7404077;19;1448;-48
2022/06/16 10:09:23;;;;;;;;;;;;;;;22.10;68.23;101249.19;7404290;19;1639;-48
2022/06/16 10:11:58;;;;;;;;;;;;;;;22.01;68.12;101242.00;7404311;19;1962;-48
2022/06/16 10:14:50;;;;;;;;;;;;;;;22.01;67.91;101242.00;7404433;19;1514;-48
2022/06/16 10:17:20;;;;;;;;;;;;;;;22.05;67.91;101257.72;7404667;19;1515;-49
2022/06/16 10:19:55;;;;;;;;;;;;;;;22.03;68.24;101242.69;7400765;19;1858;-49
2022/06/16 10:22:24;;;;;;;;;;;;;;;22.01;68.00;101244.69;7403725;19;1392;-48
2022/06/16 10:25:03;;;;;;;;;;;;;;;22.01;67.94;101250.06;7403277;19;1517;-49
2022/06/16 10:27:34;;;;;;;;;;;;;;;21.98;67.95;101253.88;7403720;19;1815;-49
2022/06/16 10:30:03;;;;;;;;;;;;;;;21.98;67.85;101235.03;7403556;19;1811;-50
2022/06/16 10:32:38;;;;;;;;;;;;;;;22.01;67.91;101245.53;7403899;19;1694;-49
2022/06/16 10:35:10;;;;;;;;;;;;;;;22.00;68.04;101229.50;7404218;19;1411;-48
2022/06/16 10:37:41;;;;;;;;;;;;;;;22.01;67.99;101229.38;7404169;19;1904;-49
2022/06/16 10:40:12;;;;;;;;;;;;;;;21.98;67.72;101234.19;7401767;19;2056;-48
2022/06/16 10:42:50;;;;;;;;;;;;;;;21.99;67.85;101235.91;7403752;19;1929;-48
2022/06/16 10:45:26;;;;;;;;;;;;;;;21.98;67.81;101232.34;7403376;19;1655;-49
2022/06/16 10:48:05;;;;;;;;;;;;;;;21.98;67.55;101228.81;7403261;19;1793;-48
2022/06/16 10:50:44;;;;;;;;;;;;;;;21.95;67.78;101231.81;7404454;19;1428;-48
2022/06/16 10:53:20;;;;;;;;;;;;;;;21.95;67.99;101218.34;7404321;19;1441;-48
2022/06/16 10:55:50;;;;;;;;;;;;;;;21.95;67.74;101213.78;7403709;19;1521;-48
2022/06/16 10:58:19;;;;;;;;;;;;;;;21.96;67.92;101217.31;7403516;19;1448;-48
2022/06/16 11:01:16;;;;;;;;;;;;;;;21.93;67.85;101212.25;7402647;19;1848;-48
2022/06/16 11:03:45;;;;;;;;;;;;;;;21.94;67.67;101214.78;7402499;19;1427;-48
2022/06/16 11:06:21;;;;;;;;;;;;;;;21.94;67.77;101211.25;7403372;19;1519;-48
2022/06/16 11:08:54;;;;;;;;;;;;;;;21.96;67.49;101214.63;7403198;19;1686;-48
2022/06/16 11:11:39;;;;;;;;;;;;;;;21.97;67.61;101210.97;7403118;19;1615;-48
2022/06/16 11:14:20;;;;;;;;;;;;;;;21.93;67.69;101205.00;7402366;19;1464;-48
2022/06/16 11:16:54;;;;;;;;;;;;;;;21.93;67.71;101210.41;7403123;19;1674;-48
2022/06/16 11:19:35;;;;;;;;;;;;;;;21.97;67.39;101216.34;7402331;19;1875;-48
2022/06/16 11:22:24;;;;;;;;;;;;;;;21.92;67.86;101205.16;7403729;19;1419;-49
2022/06/16 11:24:59;;;;;;;;;;;;;;;21.90;67.48;101194.50;7402753;19;1649;-48
2022/06/16 11:27:42;;;;;;;;;;;;;;;21.90;67.59;101205.28;7401989;19;1522;-48
2022/06/16 11:30:28;;;;;;;;;;;;;;;21.92;67.46;101202.47;7402511;19;1435;-50
2022/06/16 11:33:07;;;;;;;;;;;;;;;21.93;67.76;101196.09;7403192;19;1427;-48
2022/06/16 11:35:47;;;;;;;;;;;;;;;21.91;67.71;101192.69;7402516;19;1611;-49
2022/06/16 11:38:26;;;;;;;;;;;;;;;21.91;67.80;101206.16;7399812;19;1586;-48
2022/06/16 11:41:03;;;;;;;;;;;;;;;21.91;67.20;101200.78;7400916;19;1855;-48
2022/06/16 11:43:38;;;;;;;;;;;;;;;21.89;67.32;101181.22;7400085;19;1629;-48
2022/06/16 11:46:14;;;;;;;;;;;;;;;21.89;67.62;101189.28;7401690;19;1585;-50
2022/06/16 11:48:53;;;;;;;;;;;;;;;21.92;67.54;101191.69;7400922;19;1558;-48
2022/06/16 11:51:37;;;;;;;;;;;;;;;21.93;67.66;101191.53;7402403;19;1567;-48
2022/06/16 11:54:30;;;;;;;;;;;;;;;21.92;67.48;101175.53;7401766;19;1651;-49
2022/06/16 11:57:05;;;;;;;;;;;;;;;21.90;67.61;101188.28;7402518;19;1373;-48
2022/06/16 11:59:56;;;;;;;;;;;;;;;21.93;67.49;101178.09;7400463;19;1846;-48
2022/06/16 12:02:53;;;;;;;;;;;;;;;21.92;67.20;101183.59;7402283;19;1527;-48
2022/06/16 12:05:33;;;;;;;;;;;;;;;21.94;67.50;101192.38;7401957;19;1433;-48
2022/06/16 12:08:28;;;;;;;;;;;;;;;21.94;67.57;101181.63;7402036;19;1395;-49
2022/06/16 12:11:07;;;;;;;;;;;;;;;21.96;67.50;101185.00;7401104;19;1643;-48
2022/06/16 12:13:50;;;;;;;;;;;;;;;21.92;67.43;101187.13;7400340;19;1992;-49
2022/06/16 12:16:28;;;;;;;;;;;;;;;21.91;67.51;101190.00;7400914;19;1638;-49
2022/06/16 12:19:10;;;;;;;;;;;;;;;21.89;67.51;101165.91;7399477;19;1698;-49
2022/06/16 12:21:49;;;;;;;;;;;;;;;21.92;67.31;101154.81;7398866;19;2083;-49
2022/06/16 12:24:25;;;;;;;;;;;;;;;21.93;67.09;101158.41;7397302;19;1758;-50
2022/06/16 12:26:58;;;;;;;;;;;;;;;21.97;67.08;101157.09;7399522;19;1901;-49
2022/06/16 12:29:32;;;;;;;;;;;;;;;21.98;67.01;101159.63;7400060;19;1530;-49
2022/06/16 12:32:04;;;;;;;;;;;;;;;21.98;66.92;101161.47;7400813;19;1402;-49
2022/06/16 12:34:38;;;;;;;;;;;;;;;22.01;67.09;101166.59;7399714;19;1405;-49
2022/06/16 12:37:15;;;;;;;;;;;;;;;21.97;66.86;101157.09;7398794;19;1561;-49
2022/06/16 12:39:48;;;;;;;;;;;;;;;22.00;66.87;101151.41;7401595;19;1848;-49
2022/06/16 12:42:21;;;;;;;;;;;;;;;21.99;66.84;101145.19;7408885;19;1803;-49
2022/06/16 12:44:55;;;;;;;;;;;;;;;22.02;66.48;101153.00;7407797;19;1285;-49
2022/06/16 12:47:34;;;;;;;;;;;;;;;22.15;66.00;101144.56;7407557;19;1573;-49
2022/06/16 12:50:04;;;;;;;;;;;;;;;22.12;66.20;101147.53;7406110;19;1965;-49
2022/06/16 12:52:40;;;;;;;;;;;;;;;22.08;66.34;101143.44;7407115;19;1700;-49
2022/06/16 12:55:13;;;;;;;;;;;;;;;22.12;66.26;101134.06;7407188;19;2026;-49
2022/06/16 12:57:48;;;;;;;;;;;;;;;22.16;65.69;101138.19;7407532;19;2039;-50
2022/06/16 13:00:34;;;;;;;;;;;;;;;22.20;65.93;101125.25;7406457;19;1869;-50
2022/06/16 13:03:07;;;;;;;;;;;;;;;22.17;66.10;101137.19;7406704;19;1852;-50
2022/06/16 13:05:36;;;;;;;;;;;;;;;22.10;66.17;101136.06;7405009;19;1752;-49
2022/06/16 13:08:05;;;;;;;;;;;;;;;22.09;66.45;101125.47;7406536;19;1485;-49
2022/06/16 13:10:37;;;;;;;;;;;;;;;22.19;65.59;101129.81;7406209;19;1476;-49
2022/06/16 13:13:06;;;;;;;;;;;;;;;22.13;65.59;101111.53;7407516;19;1587;-48
2022/06/16 13:15:39;;;;;;;;;;;;;;;22.09;65.26;101120.91;7408174;19;1700;-48
2022/06/16 13:18:15;;;;;;;;;;;;;;;22.06;65.44;101099.66;7405972;19;1600;-49
2022/06/16 13:23:33;;;;;;;;;;;;;;;22.27;65.49;101098.63;7402333;19;1489;-50
2022/06/16 13:26:27;;;;;;;;;;;;;;;22.32;65.29;101097.19;7405612;19;1497;-48
2022/06/16 13:29:03;;;;;;;;;;;;;;;22.27;65.50;101104.84;7403536;19;1560;-49
2022/06/16 13:31:51;;;;;;;;;;;;;;;22.30;64.66;101090.22;7405053;19;1468;-48
2022/06/16 13:34:44;;;;;;;;;;;;;;;22.27;64.49;101093.25;7402011;19;1555;-49
2022/06/16 13:40:23;;;;;;;;;;;;;;;22.43;64.62;101105.06;7402629;19;1837;-48
2022/06/16 13:43:06;;;;;;;;;;;;;;;22.31;64.92;101090.09;7402845;19;1938;-48
2022/06/16 13:45:56;;;;;;;;;;;;;;;22.24;64.96;101091.66;7403388;19;1852;-47
2022/06/16 13:48:41;;;;;;;;;;;;;;;22.26;65.55;101094.22;7404015;19;1743;-48
2022/06/16 13:51:33;;;;;;;;;;;;;;;22.21;65.32;101091.97;7403834;19;1927;-49
2022/06/16 13:54:04;;;;;;;;;;;;;;;22.22;65.50;101090.94;7406123;19;1506;-49
2022/06/16 13:56:39;;;;;;;;;;;;;;;22.19;65.67;101080.47;7406431;19;1537;-48
2022/06/16 13:59:18;;;;;;;;;;;;;;;22.26;65.80;101088.84;7406138;19;1896;-49
2022/06/16 14:02:10;;;;;;;;;;;;;;;22.19;65.59;101080.47;7404017;19;1843;-50
2022/06/16 14:04:46;;;;;;;;;;;;;;;22.13;65.15;101079.22;7405694;19;1521;-49
2022/06/16 14:07:16;;;;;;;;;;;;;;;22.06;64.95;101091.56;7404721;19;1768;-49
2022/06/16 14:09:55;;;;;;;;;;;;;;;22.04;65.13;101091.75;7405277;19;1645;-48
2022/06/16 14:12:44;;;;;;;;;;;;;;;22.00;65.11;101082.28;7403545;19;1592;-49